sensor_id;sensor_type;location;lat;lon;timestamp;temperature;humidity
67555;HTU21D;54385;53.516;49.456;2023-12-29T00:01:11;19.18;23.46
67555;HTU21D;54385;53.516;49.456;2023-12-29T00:03:37;19.16;23.46
67555;HTU21D;54385;53.516;49.456;2023-12-29T00:06:04;19.16;23.44
67555;HTU21D;54385;53.516;49.456;2023-12-29T00:08:31;19.15;23.45
67555;HTU21D;54385;53.516;49.456;2023-12-29T00:10:59;19.15;23.45
67555;HTU21D;54385;53.516;49.456;2023-12-29T00:13:25;19.16;23.46
67555;HTU21D;54385;53.516;49.456;2023-12-29T00:15:52;19.15;23.43
67555;HTU21D;54385;53.516;49.456;2023-12-29T00:18:19;19.17;23.41
67555;HTU21D;54385;53.516;49.456;2023-12-29T00:20:46;19.16;23.34
67555;HTU21D;54385;53.516;49.456;2023-12-29T00:23:13;19.15;23.39
67555;HTU21D;54385;53.516;49.456;2023-12-29T00:25:39;19.15;23.36
67555;HTU21D;54385;53.516;49.456;2023-12-29T00:28:06;19.15;23.38
67555;HTU21D;54385;53.516;49.456;2023-12-29T00:30:33;19.14;23.34
67555;HTU21D;54385;53.516;49.456;2023-12-29T00:32:59;19.15;23.38
67555;HTU21D;54385;53.516;49.456;2023-12-29T00:35:26;19.15;23.35
67555;HTU21D;54385;53.516;49.456;2023-12-29T00:37:52;19.15;23.35
67555;HTU21D;54385;53.516;49.456;2023-12-29T00:40:19;19.14;23.32
67555;HTU21D;54385;53.516;49.456;2023-12-29T00:42:45;19.14;23.30
67555;HTU21D;54385;53.516;49.456;2023-12-29T00:45:12;19.14;23.31
67555;HTU21D;54385;53.516;49.456;2023-12-29T00:47:38;19.13;23.30
67555;HTU21D;54385;53.516;49.456;2023-12-29T00:50:05;19.15;23.34
67555;HTU21D;54385;53.516;49.456;2023-12-29T00:52:32;19.13;23.35
67555;HTU21D;54385;53.516;49.456;2023-12-29T00:54:58;19.12;23.32
67555;HTU21D;54385;53.516;49.456;2023-12-29T00:57:25;19.13;23.28
67555;HTU21D;54385;53.516;49.456;2023-12-29T00:59:51;19.13;23.25
67555;HTU21D;54385;53.516;49.456;2023-12-29T01:02:17;19.14;23.24
67555;HTU21D;54385;53.516;49.456;2023-12-29T01:04:44;19.15;23.24
67555;HTU21D;54385;53.516;49.456;2023-12-29T01:07:10;19.16;23.18
67555;HTU21D;54385;53.516;49.456;2023-12-29T01:09:38;19.16;23.18
67555;HTU21D;54385;53.516;49.456;2023-12-29T01:12:06;19.16;23.12
67555;HTU21D;54385;53.516;49.456;2023-12-29T01:14:32;19.17;23.15
67555;HTU21D;54385;53.516;49.456;2023-12-29T01:16:59;19.16;23.15
67555;HTU21D;54385;53.516;49.456;2023-12-29T01:19:26;19.17;23.13
67555;HTU21D;54385;53.516;49.456;2023-12-29T01:21:56;19.14;23.13
67555;HTU21D;54385;53.516;49.456;2023-12-29T01:24:22;19.15;23.11
67555;HTU21D;54385;53.516;49.456;2023-12-29T01:26:49;19.15;23.08
67555;HTU21D;54385;53.516;49.456;2023-12-29T01:29:15;19.15;23.07
67555;HTU21D;54385;53.516;49.456;2023-12-29T01:31:42;19.13;23.07
67555;HTU21D;54385;53.516;49.456;2023-12-29T01:34:09;19.13;23.03
67555;HTU21D;54385;53.516;49.456;2023-12-29T01:36:35;19.13;23.03
67555;HTU21D;54385;53.516;49.456;2023-12-29T01:39:02;19.13;23.01
67555;HTU21D;54385;53.516;49.456;2023-12-29T01:41:29;19.10;23.04
67555;HTU21D;54385;53.516;49.456;2023-12-29T01:46:25;19.10;23.00
67555;HTU21D;54385;53.516;49.456;2023-12-29T01:48:52;19.09;23.02
67555;HTU21D;54385;53.516;49.456;2023-12-29T01:51:21;19.09;22.98
67555;HTU21D;54385;53.516;49.456;2023-12-29T01:53:52;19.08;22.97
67555;HTU21D;54385;53.516;49.456;2023-12-29T01:56:20;19.07;23.00
67555;HTU21D;54385;53.516;49.456;2023-12-29T01:58:51;19.08;22.95
67555;HTU21D;54385;53.516;49.456;2023-12-29T02:01:18;19.07;23.00
67555;HTU21D;54385;53.516;49.456;2023-12-29T02:03:45;19.07;22.99
67555;HTU21D;54385;53.516;49.456;2023-12-29T02:06:12;19.07;22.96
67555;HTU21D;54385;53.516;49.456;2023-12-29T02:08:43;19.07;22.99
67555;HTU21D;54385;53.516;49.456;2023-12-29T02:11:09;19.07;22.97
67555;HTU21D;54385;53.516;49.456;2023-12-29T02:13:36;19.08;22.93
67555;HTU21D;54385;53.516;49.456;2023-12-29T02:16:09;19.07;22.91
67555;HTU21D;54385;53.516;49.456;2023-12-29T02:18:39;19.09;22.92
67555;HTU21D;54385;53.516;49.456;2023-12-29T02:21:07;19.09;22.96
67555;HTU21D;54385;53.516;49.456;2023-12-29T02:23:34;19.09;22.92
67555;HTU21D;54385;53.516;49.456;2023-12-29T02:26:05;19.09;22.92
67555;HTU21D;54385;53.516;49.456;2023-12-29T02:28:33;19.10;22.87
67555;HTU21D;54385;53.516;49.456;2023-12-29T02:31:06;19.10;22.85
67555;HTU21D;54385;53.516;49.456;2023-12-29T02:33:40;19.10;22.91
67555;HTU21D;54385;53.516;49.456;2023-12-29T02:36:07;19.09;22.88
67555;HTU21D;54385;53.516;49.456;2023-12-29T02:38:34;19.09;22.91
67555;HTU21D;54385;53.516;49.456;2023-12-29T02:41:01;19.11;22.87
67555;HTU21D;54385;53.516;49.456;2023-12-29T02:43:27;19.12;22.88
67555;HTU21D;54385;53.516;49.456;2023-12-29T02:45:54;19.12;22.85
67555;HTU21D;54385;53.516;49.456;2023-12-29T02:48:20;19.12;22.88
67555;HTU21D;54385;53.516;49.456;2023-12-29T02:50:47;19.12;22.88
67555;HTU21D;54385;53.516;49.456;2023-12-29T02:53:13;19.11;22.88
67555;HTU21D;54385;53.516;49.456;2023-12-29T02:55:40;19.10;22.89
67555;HTU21D;54385;53.516;49.456;2023-12-29T02:58:06;19.09;22.89
67555;HTU21D;54385;53.516;49.456;2023-12-29T03:00:32;19.10;22.90
67555;HTU21D;54385;53.516;49.456;2023-12-29T03:02:59;19.10;22.89
67555;HTU21D;54385;53.516;49.456;2023-12-29T03:05:26;19.10;22.88
67555;HTU21D;54385;53.516;49.456;2023-12-29T03:07:52;19.11;22.88
67555;HTU21D;54385;53.516;49.456;2023-12-29T03:10:18;19.10;22.86
67555;HTU21D;54385;53.516;49.456;2023-12-29T03:12:45;19.10;22.85
67555;HTU21D;54385;53.516;49.456;2023-12-29T03:15:11;19.10;22.87
67555;HTU21D;54385;53.516;49.456;2023-12-29T03:17:38;19.10;22.86
67555;HTU21D;54385;53.516;49.456;2023-12-29T03:20:05;19.10;22.86
67555;HTU21D;54385;53.516;49.456;2023-12-29T03:22:32;19.11;22.97
67555;HTU21D;54385;53.516;49.456;2023-12-29T03:24:58;19.13;23.16
67555;HTU21D;54385;53.516;49.456;2023-12-29T03:27:25;19.18;23.66
67555;HTU21D;54385;53.516;49.456;2023-12-29T03:29:51;19.21;23.85
67555;HTU21D;54385;53.516;49.456;2023-12-29T03:32:18;19.24;23.85
67555;HTU21D;54385;53.516;49.456;2023-12-29T03:34:45;19.26;23.88
67555;HTU21D;54385;53.516;49.456;2023-12-29T03:37:11;19.26;23.99
67555;HTU21D;54385;53.516;49.456;2023-12-29T03:39:38;19.28;24.15
67555;HTU21D;54385;53.516;49.456;2023-12-29T03:42:04;19.30;24.56
67555;HTU21D;54385;53.516;49.456;2023-12-29T03:44:31;19.35;24.94
67555;HTU21D;54385;53.516;49.456;2023-12-29T03:46:57;19.39;25.14
67555;HTU21D;54385;53.516;49.456;2023-12-29T03:49:24;19.42;25.40
67555;HTU21D;54385;53.516;49.456;2023-12-29T03:51:53;19.46;25.64
67555;HTU21D;54385;53.516;49.456;2023-12-29T03:54:20;19.47;25.86
67555;HTU21D;54385;53.516;49.456;2023-12-29T03:56:47;19.50;25.97
67555;HTU21D;54385;53.516;49.456;2023-12-29T03:59:14;19.52;26.10
67555;HTU21D;54385;53.516;49.456;2023-12-29T04:01:41;19.54;26.11
67555;HTU21D;54385;53.516;49.456;2023-12-29T04:04:07;19.53;26.25
67555;HTU21D;54385;53.516;49.456;2023-12-29T04:06:33;19.54;26.47
67555;HTU21D;54385;53.516;49.456;2023-12-29T04:09:00;19.56;26.73
67555;HTU21D;54385;53.516;49.456;2023-12-29T04:11:27;19.57;26.90
67555;HTU21D;54385;53.516;49.456;2023-12-29T04:13:53;19.61;27.60
67555;HTU21D;54385;53.516;49.456;2023-12-29T04:16:20;19.65;28.05
67555;HTU21D;54385;53.516;49.456;2023-12-29T04:18:52;19.69;29.21
67555;HTU21D;54385;53.516;49.456;2023-12-29T04:21:19;19.72;28.68
67555;HTU21D;54385;53.516;49.456;2023-12-29T04:23:46;19.76;28.81
67555;HTU21D;54385;53.516;49.456;2023-12-29T04:26:13;19.79;28.77
67555;HTU21D;54385;53.516;49.456;2023-12-29T04:28:39;19.80;28.60
67555;HTU21D;54385;53.516;49.456;2023-12-29T04:31:06;19.80;28.53
67555;HTU21D;54385;53.516;49.456;2023-12-29T04:33:33;19.79;28.77
67555;HTU21D;54385;53.516;49.456;2023-12-29T04:35:59;19.82;28.89
67555;HTU21D;54385;53.516;49.456;2023-12-29T04:38:26;19.82;29.15
67555;HTU21D;54385;53.516;49.456;2023-12-29T04:40:53;19.84;29.10
67555;HTU21D;54385;53.516;49.456;2023-12-29T04:43:19;19.85;29.04
67555;HTU21D;54385;53.516;49.456;2023-12-29T04:45:46;19.86;28.99
67555;HTU21D;54385;53.516;49.456;2023-12-29T04:48:13;19.86;29.20
67555;HTU21D;54385;53.516;49.456;2023-12-29T04:50:40;19.88;29.35
67555;HTU21D;54385;53.516;49.456;2023-12-29T04:53:07;19.91;29.38
67555;HTU21D;54385;53.516;49.456;2023-12-29T04:55:36;19.94;29.58
67555;HTU21D;54385;53.516;49.456;2023-12-29T04:58:04;19.96;29.52
67555;HTU21D;54385;53.516;49.456;2023-12-29T05:00:35;19.97;29.46
67555;HTU21D;54385;53.516;49.456;2023-12-29T05:03:01;19.97;29.32
67555;HTU21D;54385;53.516;49.456;2023-12-29T05:05:28;19.97;29.21
67555;HTU21D;54385;53.516;49.456;2023-12-29T05:08:20;19.99;29.27
67555;HTU21D;54385;53.516;49.456;2023-12-29T05:10:50;20.04;29.06
67555;HTU21D;54385;53.516;49.456;2023-12-29T05:13:17;20.05;29.36
67555;HTU21D;54385;53.516;49.456;2023-12-29T05:15:50;20.06;29.45
67555;HTU21D;54385;53.516;49.456;2023-12-29T05:18:17;20.10;29.48
67555;HTU21D;54385;53.516;49.456;2023-12-29T05:20:44;20.13;29.46
67555;HTU21D;54385;53.516;49.456;2023-12-29T05:23:11;20.17;29.46
67555;HTU21D;54385;53.516;49.456;2023-12-29T05:25:38;20.24;29.43
67555;HTU21D;54385;53.516;49.456;2023-12-29T05:28:09;20.29;29.35
67555;HTU21D;54385;53.516;49.456;2023-12-29T05:30:45;20.34;29.45
67555;HTU21D;54385;53.516;49.456;2023-12-29T05:33:11;20.40;29.17
67555;HTU21D;54385;53.516;49.456;2023-12-29T05:35:38;20.46;29.05
67555;HTU21D;54385;53.516;49.456;2023-12-29T05:38:05;20.54;28.90
67555;HTU21D;54385;53.516;49.456;2023-12-29T05:40:33;20.59;28.84
67555;HTU21D;54385;53.516;49.456;2023-12-29T05:43:00;20.62;28.76
67555;HTU21D;54385;53.516;49.456;2023-12-29T05:45:28;20.66;28.68
67555;HTU21D;54385;53.516;49.456;2023-12-29T05:47:58;20.72;28.54
67555;HTU21D;54385;53.516;49.456;2023-12-29T05:50:25;20.76;28.41
67555;HTU21D;54385;53.516;49.456;2023-12-29T05:52:54;20.77;28.36
67555;HTU21D;54385;53.516;49.456;2023-12-29T05:55:21;20.77;28.34
67555;HTU21D;54385;53.516;49.456;2023-12-29T05:57:48;20.77;28.34
67555;HTU21D;54385;53.516;49.456;2023-12-29T06:00:15;20.80;28.30
67555;HTU21D;54385;53.516;49.456;2023-12-29T06:02:42;20.83;28.32
67555;HTU21D;54385;53.516;49.456;2023-12-29T06:05:12;20.89;28.41
67555;HTU21D;54385;53.516;49.456;2023-12-29T06:07:39;20.98;28.04
67555;HTU21D;54385;53.516;49.456;2023-12-29T06:10:09;21.08;27.79
67555;HTU21D;54385;53.516;49.456;2023-12-29T06:12:36;21.17;27.75
67555;HTU21D;54385;53.516;49.456;2023-12-29T06:15:07;21.24;27.64
67555;HTU21D;54385;53.516;49.456;2023-12-29T06:17:37;21.31;27.54
67555;HTU21D;54385;53.516;49.456;2023-12-29T06:20:11;21.32;27.50
67555;HTU21D;54385;53.516;49.456;2023-12-29T06:22:41;21.34;27.49
67555;HTU21D;54385;53.516;49.456;2023-12-29T06:25:16;21.34;27.49
67555;HTU21D;54385;53.516;49.456;2023-12-29T06:27:43;21.36;27.94
67555;HTU21D;54385;53.516;49.456;2023-12-29T06:30:11;21.36;28.99
67555;HTU21D;54385;53.516;49.456;2023-12-29T06:32:37;21.42;29.71
67555;HTU21D;54385;53.516;49.456;2023-12-29T06:35:05;21.47;29.87
67555;HTU21D;54385;53.516;49.456;2023-12-29T06:37:33;21.53;29.92
67555;HTU21D;54385;53.516;49.456;2023-12-29T06:40:54;21.65;29.65
67555;HTU21D;54385;53.516;49.456;2023-12-29T06:43:21;21.73;29.26
67555;HTU21D;54385;53.516;49.456;2023-12-29T06:45:50;21.80;29.04
67555;HTU21D;54385;53.516;49.456;2023-12-29T06:48:17;21.91;28.87
67555;HTU21D;54385;53.516;49.456;2023-12-29T06:50:46;21.97;28.58
67555;HTU21D;54385;53.516;49.456;2023-12-29T06:53:13;22.05;28.37
67555;HTU21D;54385;53.516;49.456;2023-12-29T06:55:40;22.12;28.13
67555;HTU21D;54385;53.516;49.456;2023-12-29T06:58:16;22.20;27.94
67555;HTU21D;54385;53.516;49.456;2023-12-29T07:00:43;22.27;27.79
67555;HTU21D;54385;53.516;49.456;2023-12-29T07:03:13;22.35;27.49
67555;HTU21D;54385;53.516;49.456;2023-12-29T07:05:40;22.41;27.32
67555;HTU21D;54385;53.516;49.456;2023-12-29T07:08:15;22.44;27.13
67555;HTU21D;54385;53.516;49.456;2023-12-29T07:13:50;22.52;26.81
67555;HTU21D;54385;53.516;49.456;2023-12-29T07:16:17;22.53;26.71
67555;HTU21D;54385;53.516;49.456;2023-12-29T07:18:46;22.51;26.55
67555;HTU21D;54385;53.516;49.456;2023-12-29T07:21:25;22.48;26.46
67555;HTU21D;54385;53.516;49.456;2023-12-29T07:24:00;22.42;26.42
67555;HTU21D;54385;53.516;49.456;2023-12-29T07:26:48;22.41;26.14
67555;HTU21D;54385;53.516;49.456;2023-12-29T07:29:18;22.37;26.20
67555;HTU21D;54385;53.516;49.456;2023-12-29T07:32:00;22.27;26.15
67555;HTU21D;54385;53.516;49.456;2023-12-29T07:34:27;22.21;26.20
67555;HTU21D;54385;53.516;49.456;2023-12-29T07:37:23;22.14;25.88
67555;HTU21D;54385;53.516;49.456;2023-12-29T07:45:30;21.82;26.32
67555;HTU21D;54385;53.516;49.456;2023-12-29T07:48:10;21.72;26.48
67555;HTU21D;54385;53.516;49.456;2023-12-29T07:51:07;21.62;26.42
67555;HTU21D;54385;53.516;49.456;2023-12-29T07:54:02;21.55;26.33
67555;HTU21D;54385;53.516;49.456;2023-12-29T07:56:32;21.52;26.48
67555;HTU21D;54385;53.516;49.456;2023-12-29T07:59:47;21.48;26.46
67555;HTU21D;54385;53.516;49.456;2023-12-29T08:03:01;21.45;26.42
67555;HTU21D;54385;53.516;49.456;2023-12-29T08:09:36;21.70;25.67
67555;HTU21D;54385;53.516;49.456;2023-12-29T08:12:43;21.73;25.54
67555;HTU21D;54385;53.516;49.456;2023-12-29T08:15:46;21.75;25.60
67555;HTU21D;54385;53.516;49.456;2023-12-29T08:18:16;21.74;25.49
67555;HTU21D;54385;53.516;49.456;2023-12-29T08:21:04;21.74;25.46
67555;HTU21D;54385;53.516;49.456;2023-12-29T08:24:16;21.69;25.36
67555;HTU21D;54385;53.516;49.456;2023-12-29T08:26:47;21.63;25.36
67555;HTU21D;54385;53.516;49.456;2023-12-29T08:29:19;21.60;25.41
67555;HTU21D;54385;53.516;49.456;2023-12-29T08:31:55;21.59;25.29
67555;HTU21D;54385;53.516;49.456;2023-12-29T08:34:54;21.59;25.08
67555;HTU21D;54385;53.516;49.456;2023-12-29T08:37:28;21.61;25.20
67555;HTU21D;54385;53.516;49.456;2023-12-29T08:40:16;21.63;25.02
67555;HTU21D;54385;53.516;49.456;2023-12-29T08:42:53;21.65;24.85
67555;HTU21D;54385;53.516;49.456;2023-12-29T08:45:37;21.66;24.91
67555;HTU21D;54385;53.516;49.456;2023-12-29T08:48:07;21.65;24.82
67555;HTU21D;54385;53.516;49.456;2023-12-29T08:50:53;21.65;24.57
67555;HTU21D;54385;53.516;49.456;2023-12-29T09:00:07;21.60;24.40
67555;HTU21D;54385;53.516;49.456;2023-12-29T09:02:38;21.59;24.52
67555;HTU21D;54385;53.516;49.456;2023-12-29T09:05:20;21.58;24.35
67555;HTU21D;54385;53.516;49.456;2023-12-29T09:07:57;21.54;24.41
67555;HTU21D;54385;53.516;49.456;2023-12-29T09:10:33;21.48;24.50
67555;HTU21D;54385;53.516;49.456;2023-12-29T09:13:15;21.40;24.46
67555;HTU21D;54385;53.516;49.456;2023-12-29T09:15:58;21.33;24.56
67555;HTU21D;54385;53.516;49.456;2023-12-29T09:18:25;21.30;24.59
67555;HTU21D;54385;53.516;49.456;2023-12-29T09:21:29;21.27;24.43
67555;HTU21D;54385;53.516;49.456;2023-12-29T09:24:31;21.21;24.53
67555;HTU21D;54385;53.516;49.456;2023-12-29T09:27:10;21.17;24.46
67555;HTU21D;54385;53.516;49.456;2023-12-29T09:29:57;21.16;24.50
67555;HTU21D;54385;53.516;49.456;2023-12-29T09:32:37;21.17;24.43
67555;HTU21D;54385;53.516;49.456;2023-12-29T09:38:37;21.13;24.39
67555;HTU21D;54385;53.516;49.456;2023-12-29T09:42:14;21.09;24.19
67555;HTU21D;54385;53.516;49.456;2023-12-29T09:48:02;21.06;24.24
67555;HTU21D;54385;53.516;49.456;2023-12-29T09:50:39;21.06;24.24
67555;HTU21D;54385;53.516;49.456;2023-12-29T09:53:41;21.08;24.00
67555;HTU21D;54385;53.516;49.456;2023-12-29T09:56:28;21.07;23.91
67555;HTU21D;54385;53.516;49.456;2023-12-29T09:59:17;21.04;24.07
67555;HTU21D;54385;53.516;49.456;2023-12-29T10:02:36;21.01;23.86
67555;HTU21D;54385;53.516;49.456;2023-12-29T10:10:19;20.98;23.76
67555;HTU21D;54385;53.516;49.456;2023-12-29T10:12:55;20.95;23.85
67555;HTU21D;54385;53.516;49.456;2023-12-29T10:15:44;20.92;23.71
67555;HTU21D;54385;53.516;49.456;2023-12-29T10:22:11;20.80;23.75
67555;HTU21D;54385;53.516;49.456;2023-12-29T10:24:45;20.76;23.88
67555;HTU21D;54385;53.516;49.456;2023-12-29T10:27:38;20.73;23.95
67555;HTU21D;54385;53.516;49.456;2023-12-29T10:30:10;20.66;23.89
67555;HTU21D;54385;53.516;49.456;2023-12-29T10:32:58;20.62;23.79
67555;HTU21D;54385;53.516;49.456;2023-12-29T10:35:38;20.57;24.02
67555;HTU21D;54385;53.516;49.456;2023-12-29T10:38:17;20.54;24.03
67555;HTU21D;54385;53.516;49.456;2023-12-29T10:41:14;20.54;23.79
67555;HTU21D;54385;53.516;49.456;2023-12-29T10:43:47;20.55;23.91
67555;HTU21D;54385;53.516;49.456;2023-12-29T10:46:33;20.56;23.78
67555;HTU21D;54385;53.516;49.456;2023-12-29T10:49:11;20.59;23.65
67555;HTU21D;54385;53.516;49.456;2023-12-29T10:51:40;20.58;23.71
67555;HTU21D;54385;53.516;49.456;2023-12-29T10:54:32;20.54;23.53
67555;HTU21D;54385;53.516;49.456;2023-12-29T10:57:04;20.51;23.62
67555;HTU21D;54385;53.516;49.456;2023-12-29T11:00:14;20.50;23.48
67555;HTU21D;54385;53.516;49.456;2023-12-29T11:03:20;20.47;23.50
67555;HTU21D;54385;53.516;49.456;2023-12-29T11:05:47;20.45;23.65
67555;HTU21D;54385;53.516;49.456;2023-12-29T11:08:43;20.44;23.51
67555;HTU21D;54385;53.516;49.456;2023-12-29T11:11:19;20.41;23.56
67555;HTU21D;54385;53.516;49.456;2023-12-29T11:13:59;20.37;23.61
67555;HTU21D;54385;53.516;49.456;2023-12-29T11:16:30;20.37;23.61
67555;HTU21D;54385;53.516;49.456;2023-12-29T11:19:07;20.36;23.56
67555;HTU21D;54385;53.516;49.456;2023-12-29T11:21:51;20.32;23.60
67555;HTU21D;54385;53.516;49.456;2023-12-29T11:25:08;20.27;23.48
67555;HTU21D;54385;53.516;49.456;2023-12-29T11:30:35;20.21;23.67
67555;HTU21D;54385;53.516;49.456;2023-12-29T11:33:29;20.19;23.60
67555;HTU21D;54385;53.516;49.456;2023-12-29T11:36:12;20.20;23.56
67555;HTU21D;54385;53.516;49.456;2023-12-29T11:42:40;20.18;23.45
67555;HTU21D;54385;53.516;49.456;2023-12-29T11:48:55;20.14;23.44
67555;HTU21D;54385;53.516;49.456;2023-12-29T11:52:39;20.10;23.49
67555;HTU21D;54385;53.516;49.456;2023-12-29T11:55:14;20.07;23.59
67555;HTU21D;54385;53.516;49.456;2023-12-29T11:57:54;20.02;23.60
67555;HTU21D;54385;53.516;49.456;2023-12-29T12:00:47;19.98;23.66
67555;HTU21D;54385;53.516;49.456;2023-12-29T12:03:40;19.96;23.53
67555;HTU21D;54385;53.516;49.456;2023-12-29T12:06:36;19.92;23.60
67555;HTU21D;54385;53.516;49.456;2023-12-29T12:09:16;19.89;23.62
67555;HTU21D;54385;53.516;49.456;2023-12-29T12:11:49;19.84;23.72
67555;HTU21D;54385;53.516;49.456;2023-12-29T12:17:47;19.79;23.69
67555;HTU21D;54385;53.516;49.456;2023-12-29T12:20:22;19.74;23.81
67555;HTU21D;54385;53.516;49.456;2023-12-29T12:23:19;19.71;23.75
67555;HTU21D;54385;53.516;49.456;2023-12-29T12:26:10;19.70;23.80
67555;HTU21D;54385;53.516;49.456;2023-12-29T12:29:23;19.67;23.78
67555;HTU21D;54385;53.516;49.456;2023-12-29T12:31:54;19.63;23.80
67555;HTU21D;54385;53.516;49.456;2023-12-29T12:34:47;19.61;23.84
67555;HTU21D;54385;53.516;49.456;2023-12-29T12:37:25;19.60;23.83
67555;HTU21D;54385;53.516;49.456;2023-12-29T12:40:03;19.58;23.76
67555;HTU21D;54385;53.516;49.456;2023-12-29T12:42:53;19.56;23.82
67555;HTU21D;54385;53.516;49.456;2023-12-29T12:46:03;19.54;23.72
67555;HTU21D;54385;53.516;49.456;2023-12-29T12:48:43;19.52;23.76
67555;HTU21D;54385;53.516;49.456;2023-12-29T12:51:14;19.48;23.84
67555;HTU21D;54385;53.516;49.456;2023-12-29T12:53:46;19.48;23.83
67555;HTU21D;54385;53.516;49.456;2023-12-29T12:56:15;19.46;23.84
67555;HTU21D;54385;53.516;49.456;2023-12-29T12:58:43;19.44;23.85
67555;HTU21D;54385;53.516;49.456;2023-12-29T13:01:13;19.43;23.78
67555;HTU21D;54385;53.516;49.456;2023-12-29T13:03:47;19.43;23.79
67555;HTU21D;54385;53.516;49.456;2023-12-29T13:06:40;19.43;23.78
67555;HTU21D;54385;53.516;49.456;2023-12-29T13:09:17;19.44;23.75
67555;HTU21D;54385;53.516;49.456;2023-12-29T13:12:25;19.42;23.66
67555;HTU21D;54385;53.516;49.456;2023-12-29T13:15:08;19.43;23.69
67555;HTU21D;54385;53.516;49.456;2023-12-29T13:17:35;19.41;23.73
67555;HTU21D;54385;53.516;49.456;2023-12-29T13:20:02;19.43;23.70
67555;HTU21D;54385;53.516;49.456;2023-12-29T13:22:40;19.42;23.66
67555;HTU21D;54385;53.516;49.456;2023-12-29T13:25:26;19.43;23.53
67555;HTU21D;54385;53.516;49.456;2023-12-29T13:28:00;19.42;23.64
67555;HTU21D;54385;53.516;49.456;2023-12-29T13:30:27;19.41;23.62
67555;HTU21D;54385;53.516;49.456;2023-12-29T13:32:57;19.43;23.59
67555;HTU21D;54385;53.516;49.456;2023-12-29T13:35:40;19.42;23.50
67555;HTU21D;54385;53.516;49.456;2023-12-29T13:38:25;19.41;23.50
67555;HTU21D;54385;53.516;49.456;2023-12-29T13:41:19;19.41;23.54
67555;HTU21D;54385;53.516;49.456;2023-12-29T13:43:45;19.42;23.56
67555;HTU21D;54385;53.516;49.456;2023-12-29T13:46:15;19.41;23.51
67555;HTU21D;54385;53.516;49.456;2023-12-29T13:48:45;19.42;23.46
67555;HTU21D;54385;53.516;49.456;2023-12-29T13:51:17;19.41;23.53
67555;HTU21D;54385;53.516;49.456;2023-12-29T13:54:10;19.41;23.48
67555;HTU21D;54385;53.516;49.456;2023-12-29T13:56:36;19.41;23.49
67555;HTU21D;54385;53.516;49.456;2023-12-29T13:59:15;19.41;23.37
67555;HTU21D;54385;53.516;49.456;2023-12-29T14:01:53;19.40;23.40
67555;HTU21D;54385;53.516;49.456;2023-12-29T14:04:23;19.40;23.46
67555;HTU21D;54385;53.516;49.456;2023-12-29T14:07:01;19.39;23.42
67555;HTU21D;54385;53.516;49.456;2023-12-29T14:09:39;19.41;23.41
67555;HTU21D;54385;53.516;49.456;2023-12-29T14:12:06;19.40;23.43
67555;HTU21D;54385;53.516;49.456;2023-12-29T14:14:43;19.40;23.37
67555;HTU21D;54385;53.516;49.456;2023-12-29T14:17:23;19.41;23.29
67555;HTU21D;54385;53.516;49.456;2023-12-29T14:19:49;19.41;23.32
67555;HTU21D;54385;53.516;49.456;2023-12-29T14:22:22;19.40;23.24
67555;HTU21D;54385;53.516;49.456;2023-12-29T14:25:02;19.40;23.21
67555;HTU21D;54385;53.516;49.456;2023-12-29T14:27:35;19.40;23.30
67555;HTU21D;54385;53.516;49.456;2023-12-29T14:30:04;19.42;23.26
67555;HTU21D;54385;53.516;49.456;2023-12-29T14:32:43;19.41;23.22
67555;HTU21D;54385;53.516;49.456;2023-12-29T14:35:12;19.40;23.23
67555;HTU21D;54385;53.516;49.456;2023-12-29T14:37:39;19.40;23.24
67555;HTU21D;54385;53.516;49.456;2023-12-29T14:40:11;19.40;23.14
67555;HTU21D;54385;53.516;49.456;2023-12-29T14:42:37;19.40;23.20
67555;HTU21D;54385;53.516;49.456;2023-12-29T14:45:10;19.40;23.18
67555;HTU21D;54385;53.516;49.456;2023-12-29T14:47:41;19.41;23.12
67555;HTU21D;54385;53.516;49.456;2023-12-29T14:50:15;19.41;23.14
67555;HTU21D;54385;53.516;49.456;2023-12-29T14:52:42;19.42;23.13
67555;HTU21D;54385;53.516;49.456;2023-12-29T14:55:11;19.41;23.08
67555;HTU21D;54385;53.516;49.456;2023-12-29T14:57:53;19.42;22.98
67555;HTU21D;54385;53.516;49.456;2023-12-29T15:00:36;19.44;22.96
67555;HTU21D;54385;53.516;49.456;2023-12-29T15:03:07;19.46;23.01
67555;HTU21D;54385;53.516;49.456;2023-12-29T15:05:40;19.44;22.94
67555;HTU21D;54385;53.516;49.456;2023-12-29T15:08:14;19.44;22.97
67555;HTU21D;54385;53.516;49.456;2023-12-29T15:10:50;19.44;22.97
67555;HTU21D;54385;53.516;49.456;2023-12-29T15:13:28;19.45;22.91
67555;HTU21D;54385;53.516;49.456;2023-12-29T15:15:59;19.44;22.90
67555;HTU21D;54385;53.516;49.456;2023-12-29T15:18:32;19.44;22.95
67555;HTU21D;54385;53.516;49.456;2023-12-29T15:21:13;19.43;22.93
67555;HTU21D;54385;53.516;49.456;2023-12-29T15:23:49;19.45;22.92
67555;HTU21D;54385;53.516;49.456;2023-12-29T15:26:19;19.44;22.88
67555;HTU21D;54385;53.516;49.456;2023-12-29T15:28:46;19.45;22.90
67555;HTU21D;54385;53.516;49.456;2023-12-29T15:31:31;19.46;22.85
67555;HTU21D;54385;53.516;49.456;2023-12-29T15:34:04;19.45;22.84
67555;HTU21D;54385;53.516;49.456;2023-12-29T15:36:33;19.45;22.84
67555;HTU21D;54385;53.516;49.456;2023-12-29T15:39:02;19.45;22.82
67555;HTU21D;54385;53.516;49.456;2023-12-29T15:41:37;19.46;22.76
67555;HTU21D;54385;53.516;49.456;2023-12-29T15:44:04;19.44;22.84
67555;HTU21D;54385;53.516;49.456;2023-12-29T15:46:35;19.45;22.80
67555;HTU21D;54385;53.516;49.456;2023-12-29T15:49:07;19.44;22.79
67555;HTU21D;54385;53.516;49.456;2023-12-29T15:51:34;19.43;22.78
67555;HTU21D;54385;53.516;49.456;2023-12-29T15:54:01;19.44;22.81
67555;HTU21D;54385;53.516;49.456;2023-12-29T15:56:28;19.43;22.82
67555;HTU21D;54385;53.516;49.456;2023-12-29T15:59:03;19.44;22.79
67555;HTU21D;54385;53.516;49.456;2023-12-29T16:01:37;19.46;22.72
67555;HTU21D;54385;53.516;49.456;2023-12-29T16:04:33;19.44;22.76
67555;HTU21D;54385;53.516;49.456;2023-12-29T16:07:00;19.46;22.77
67555;HTU21D;54385;53.516;49.456;2023-12-29T16:09:47;19.46;22.77
67555;HTU21D;54385;53.516;49.456;2023-12-29T16:12:16;19.46;22.77
67555;HTU21D;54385;53.516;49.456;2023-12-29T16:14:48;19.45;22.76
67555;HTU21D;54385;53.516;49.456;2023-12-29T16:17:16;19.46;22.75
67555;HTU21D;54385;53.516;49.456;2023-12-29T16:19:47;19.48;22.71
67555;HTU21D;54385;53.516;49.456;2023-12-29T16:22:15;19.51;22.72
67555;HTU21D;54385;53.516;49.456;2023-12-29T16:24:51;19.51;22.69
67555;HTU21D;54385;53.516;49.456;2023-12-29T16:27:20;19.52;22.69
67555;HTU21D;54385;53.516;49.456;2023-12-29T16:29:51;19.51;22.69
67555;HTU21D;54385;53.516;49.456;2023-12-29T16:32:21;19.52;22.66
67555;HTU21D;54385;53.516;49.456;2023-12-29T16:35:02;19.53;22.66
67555;HTU21D;54385;53.516;49.456;2023-12-29T16:37:29;19.52;22.70